createdAt,value
2016-03-17T00:00:22.540Z,7.77
2016-03-17T00:01:22.496Z,7.83
2016-03-17T00:02:22.499Z,7.8
2016-03-17T00:03:22.517Z,7.75
2016-03-17T00:04:22.551Z,7.77
2016-03-17T00:05:22.570Z,7.67
2016-03-17T00:06:22.572Z,7.75
2016-03-17T00:07:22.450Z,7.72
2016-03-17T00:08:22.608Z,7.67
2016-03-17T00:09:22.627Z,7.73
2016-03-17T00:10:22.661Z,7.72
2016-03-17T00:11:22.647Z,7.63
2016-03-17T00:12:22.682Z,7.63
2016-03-17T00:13:22.700Z,7.63
2016-03-17T00:14:22.719Z,7.69
2016-03-17T00:15:22.721Z,7.69
2016-03-17T00:16:22.755Z,7.57
2016-03-17T00:17:22.758Z,7.63
2016-03-17T00:18:22.776Z,7.61
2016-03-17T00:19:22.780Z,7.58
2016-03-17T00:20:22.813Z,7.57
2016-03-17T00:21:22.832Z,7.56
2016-03-17T00:22:22.882Z,7.45
2016-03-17T00:23:22.852Z,7.5
2016-03-17T00:24:22.887Z,7.6
2016-03-17T00:25:22.890Z,7.5
2016-03-17T00:26:22.907Z,7.47
2016-03-17T00:27:22.925Z,7.53
2016-03-17T00:28:22.943Z,7.51
2016-03-17T00:29:22.946Z,7.53
2016-03-17T00:30:22.981Z,7.51
2016-03-17T00:31:22.984Z,7.53
2016-03-17T00:32:23.001Z,7.5
2016-03-17T00:33:23.020Z,7.54
2016-03-17T00:34:23.038Z,7.42
2016-03-17T00:35:23.056Z,7.54
2016-03-17T00:36:23.075Z,7.39
2016-03-17T00:37:23.093Z,7.4
2016-03-17T00:38:23.096Z,7.43
2016-03-17T00:39:23.130Z,7.4
2016-03-17T00:40:23.133Z,7.4
2016-03-17T00:41:23.135Z,7.39
2016-03-17T00:42:23.169Z,7.43
2016-03-17T00:43:23.171Z,7.5
2016-03-17T00:44:23.205Z,7.47
2016-03-17T00:45:23.217Z,7.47
2016-03-17T00:46:23.235Z,7.38
2016-03-17T00:47:23.238Z,7.36
2016-03-17T00:48:23.272Z,7.38
2016-03-17T00:49:23.275Z,7.31
2016-03-17T00:50:23.293Z,7.36
2016-03-17T00:51:23.311Z,7.33
2016-03-17T00:52:23.330Z,7.32
2016-03-17T00:53:23.348Z,7.38
2016-03-17T00:54:23.366Z,7.36
2016-03-17T00:55:23.369Z,7.32
2016-03-17T00:56:23.388Z,7.36
2016-03-17T00:57:23.406Z,7.31
2016-03-17T00:58:23.424Z,7.36
2016-03-17T00:59:23.442Z,7.33
2016-03-17T01:00:23.461Z,7.29
2016-03-17T01:01:23.479Z,7.28
2016-03-17T01:02:23.497Z,7.2
2016-03-17T01:03:23.516Z,7.21
2016-03-17T01:04:23.534Z,7.29
2016-03-17T01:05:23.537Z,7.21
2016-03-17T01:06:23.399Z,7.21
2016-03-17T01:07:23.568Z,7.17
2016-03-17T01:08:23.587Z,7.2
2016-03-17T01:09:23.590Z,7.14
2016-03-17T01:10:23.623Z,7.15
2016-03-17T01:11:23.641Z,7.2
2016-03-17T01:12:23.660Z,7.13
2016-03-17T01:13:23.663Z,7.15
2016-03-17T01:14:23.681Z,7.23
2016-03-17T01:15:23.731Z,7.15
2016-03-17T01:16:23.717Z,7.23
2016-03-17T01:17:23.612Z,7.17
2016-03-17T01:18:23.754Z,7.18
2016-03-17T01:19:23.788Z,7.11
2016-03-17T01:20:23.729Z,7.18
2016-03-17T01:21:23.793Z,7.14
2016-03-17T01:22:23.812Z,7.2
2016-03-17T01:23:23.830Z,7.15
2016-03-17T01:24:23.848Z,7.14
2016-03-17T01:25:23.851Z,7.14
2016-03-17T01:26:23.870Z,7.21
2016-03-17T01:27:23.888Z,7.15
2016-03-17T01:28:23.906Z,7.11
2016-03-17T01:29:23.925Z,7.05
2016-03-17T01:30:23.927Z,7.13
2016-03-17T01:31:23.961Z,7.13
2016-03-17T01:32:23.979Z,7.15
2016-03-17T01:33:23.982Z,7.21
2016-03-17T01:34:24.000Z,7.11
2016-03-17T01:35:24.018Z,7.13
2016-03-17T01:36:24.037Z,7.13
2016-03-17T01:37:30.321Z,7.07
2016-03-17T01:38:24.074Z,7.13
2016-03-17T01:39:24.077Z,7.13
2016-03-17T01:40:24.095Z,7.07
2016-03-17T01:41:24.129Z,7.02
2016-03-17T01:42:24.132Z,7.1
2016-03-17T01:43:24.150Z,7.03
2016-03-17T01:44:24.168Z,7.03
2016-03-17T01:45:24.171Z,7.03
2016-03-17T01:46:24.190Z,7.03
2016-03-17T01:47:24.207Z,7.05
2016-03-17T01:48:24.226Z,7
2016-03-17T01:49:24.259Z,7.07
2016-03-17T01:50:24.246Z,7.02
2016-03-17T01:51:24.265Z,7
2016-03-17T01:52:24.284Z,7.03
2016-03-17T01:53:24.302Z,7.03
2016-03-17T01:54:24.320Z,7.06
2016-03-17T01:55:24.339Z,7.03
2016-03-17T01:56:24.357Z,6.92
2016-03-17T01:57:24.375Z,7.03
2016-03-17T01:58:24.378Z,7.05
2016-03-17T01:59:24.395Z,6.99
2016-03-17T02:00:24.415Z,6.95
2016-03-17T02:01:24.433Z,6.93
2016-03-17T02:02:24.483Z,6.96
2016-03-17T02:03:24.469Z,6.92
2016-03-17T02:04:24.488Z,7
2016-03-17T02:05:24.490Z,6.96
2016-03-17T02:06:24.493Z,6.95
2016-03-17T02:07:24.511Z,6.96
2016-03-17T02:08:24.529Z,6.97
2016-03-17T02:09:24.547Z,6.93
2016-03-17T02:10:24.566Z,6.92
2016-03-17T02:11:24.585Z,6.92
2016-03-17T02:12:24.602Z,6.92
2016-03-17T02:13:24.622Z,6.88
2016-03-17T02:14:24.640Z,6.95
2016-03-17T02:15:24.643Z,6.96
2016-03-17T02:16:24.677Z,6.87
2016-03-17T02:17:24.694Z,6.93
2016-03-17T02:18:24.729Z,6.89
2016-03-17T02:19:24.699Z,6.89
2016-03-17T02:20:24.734Z,6.81
2016-03-17T02:21:24.752Z,6.89
2016-03-17T02:22:24.754Z,6.87
2016-03-17T02:23:24.774Z,6.93
2016-03-17T02:24:24.792Z,6.84
2016-03-17T02:25:24.826Z,6.85
2016-03-17T02:26:24.813Z,6.81
2016-03-17T02:27:24.831Z,6.82
2016-03-17T02:28:24.881Z,6.88
2016-03-17T02:29:24.867Z,6.84
2016-03-17T02:30:24.886Z,6.84
2016-03-17T02:31:24.748Z,6.84
2016-03-17T02:32:24.923Z,6.77
2016-03-17T02:33:24.941Z,6.88
2016-03-17T02:34:24.944Z,6.81
2016-03-17T02:35:24.961Z,6.87
2016-03-17T02:36:24.964Z,6.85
2016-03-17T02:37:24.983Z,6.75
2016-03-17T02:38:25.017Z,6.84
2016-03-17T02:39:25.020Z,6.85
2016-03-17T02:40:25.038Z,6.74
2016-03-17T02:41:25.056Z,6.81
2016-03-17T02:42:25.074Z,6.81
2016-03-17T02:43:25.077Z,6.84
2016-03-17T02:44:25.080Z,6.74
2016-03-17T02:45:25.113Z,6.79
2016-03-17T02:46:25.132Z,6.79
2016-03-17T02:47:25.213Z,6.75
2016-03-17T02:48:24.997Z,6.82
2016-03-17T02:49:25.171Z,6.78
2016-03-17T02:50:25.205Z,6.82
2016-03-17T02:51:25.208Z,6.72
2016-03-17T02:52:25.226Z,6.79
2016-03-17T02:53:25.246Z,6.78
2016-03-17T02:54:25.248Z,6.74
2016-03-17T02:55:25.266Z,6.75
2016-03-17T02:56:25.284Z,6.75
2016-03-17T02:57:25.318Z,6.75
2016-03-17T02:58:25.336Z,6.75
2016-03-17T02:59:25.340Z,6.84
2016-03-17T03:00:25.342Z,6.67
2016-03-17T03:01:25.359Z,6.67
2016-03-17T03:02:25.487Z,6.7
2016-03-17T03:03:25.397Z,6.66
2016-03-17T03:04:25.400Z,6.74
2016-03-17T03:05:25.418Z,6.63
2016-03-17T03:06:25.436Z,6.72
2016-03-17T03:07:25.470Z,6.74
2016-03-17T03:08:25.489Z,6.74
2016-03-17T03:09:25.492Z,6.77
2016-03-17T03:10:25.493Z,6.72
2016-03-17T03:11:25.527Z,6.7
2016-03-17T03:12:25.530Z,6.72
2016-03-17T03:13:25.564Z,6.67
2016-03-17T03:14:25.582Z,6.69
2016-03-17T03:15:25.569Z,6.82
2016-03-17T03:16:25.587Z,6.66
2016-03-17T03:17:25.699Z,6.66
2016-03-17T03:18:25.624Z,6.72
2016-03-17T03:19:25.643Z,6.66
2016-03-17T03:20:25.660Z,6.69
2016-03-17T03:21:25.679Z,6.59
2016-03-17T03:22:25.682Z,6.62
2016-03-17T03:23:25.701Z,6.62
2016-03-17T03:24:25.719Z,6.66
2016-03-17T03:25:25.738Z,6.69
2016-03-17T03:26:25.740Z,6.69
2016-03-17T03:27:25.758Z,6.66
2016-03-17T03:28:25.792Z,6.74
2016-03-17T03:29:25.795Z,6.59
2016-03-17T03:30:25.813Z,6.67
2016-03-17T03:31:25.831Z,6.62
2016-03-17T03:32:25.850Z,6.69
2016-03-17T03:33:25.852Z,6.64
2016-03-17T03:34:25.870Z,6.62
2016-03-17T03:35:25.889Z,6.64
2016-03-17T03:36:25.907Z,6.64
2016-03-17T03:37:25.926Z,6.63
2016-03-17T03:38:25.932Z,6.6
2016-03-17T03:39:25.937Z,6.67
2016-03-17T03:40:25.928Z,6.66
2016-03-17T03:41:25.934Z,6.64
2016-03-17T03:42:25.924Z,6.69
2016-03-17T03:43:25.939Z,6.59
2016-03-17T03:44:25.968Z,6.77
2016-03-17T03:45:25.982Z,6.6
2016-03-17T03:46:25.980Z,6.62
2016-03-17T03:47:25.994Z,6.62
2016-03-17T03:48:25.996Z,6.6
2016-03-17T03:49:26.013Z,6.49
2016-03-17T03:50:26.061Z,6.6
2016-03-17T03:51:26.062Z,6.57
2016-03-17T03:52:26.064Z,6.63
2016-03-17T03:53:26.066Z,6.62
2016-03-17T03:54:26.083Z,6.59
2016-03-17T03:55:26.100Z,6.66
2016-03-17T03:56:26.118Z,6.62
2016-03-17T03:57:26.135Z,6.57
2016-03-17T03:58:26.154Z,6.69
2016-03-17T03:59:26.157Z,6.6
2016-03-17T04:00:26.175Z,6.57
2016-03-17T04:01:26.193Z,6.59
2016-03-17T04:02:26.212Z,6.63
2016-03-17T04:03:26.229Z,6.59
2016-03-17T04:04:26.232Z,6.63
2016-03-17T04:05:26.250Z,6.6
2016-03-17T04:06:26.268Z,6.56
2016-03-17T04:07:26.287Z,6.66
2016-03-17T04:08:26.305Z,6.59
2016-03-17T04:09:26.308Z,6.49
2016-03-17T04:10:26.326Z,6.51
2016-03-17T04:11:26.470Z,6.48
2016-03-17T04:12:26.364Z,6.57
2016-03-17T04:13:26.381Z,6.51
2016-03-17T04:14:26.384Z,6.51
2016-03-17T04:15:26.403Z,6.57
2016-03-17T04:16:26.436Z,6.56
2016-03-17T04:17:26.423Z,6.52
2016-03-17T04:18:26.458Z,6.56
2016-03-17T04:19:26.475Z,6.56
2016-03-17T04:20:26.478Z,6.54
2016-03-17T04:21:26.496Z,6.48
2016-03-17T04:22:26.515Z,6.54
2016-03-17T04:23:26.533Z,6.52
2016-03-17T04:24:26.536Z,6.51
2016-03-17T04:25:26.555Z,6.59
2016-03-17T04:26:26.572Z,6.54
2016-03-17T04:27:26.575Z,6.59
2016-03-17T04:28:26.610Z,6.57
2016-03-17T04:29:26.613Z,6.54
2016-03-17T04:30:26.630Z,6.59
2016-03-17T04:31:26.649Z,6.56
2016-03-17T04:32:26.667Z,6.56
2016-03-17T04:33:26.685Z,6.51
2016-03-17T04:34:26.687Z,6.54
2016-03-17T04:35:26.706Z,6.56
2016-03-17T04:36:26.724Z,6.57
2016-03-17T04:37:26.742Z,6.57
2016-03-17T04:38:26.761Z,6.59
2016-03-17T04:39:26.779Z,6.57
2016-03-17T04:40:26.782Z,6.48
2016-03-17T04:41:26.801Z,6.49
2016-03-17T04:42:26.804Z,6.51
2016-03-17T04:43:26.837Z,6.48
2016-03-17T04:44:26.856Z,6.51
2016-03-17T04:45:26.858Z,6.45
2016-03-17T04:46:26.892Z,6.52
2016-03-17T04:47:26.895Z,6.42
2016-03-17T04:48:26.914Z,6.45
2016-03-17T04:49:26.916Z,6.46
2016-03-17T04:50:26.934Z,6.46
2016-03-17T04:51:26.952Z,6.48
2016-03-17T04:52:26.971Z,6.46
2016-03-17T04:53:26.988Z,6.51
2016-03-17T04:54:27.007Z,6.46
2016-03-17T04:55:27.025Z,6.42
2016-03-17T04:56:27.044Z,6.48
2016-03-17T04:57:27.046Z,6.49
2016-03-17T04:58:27.066Z,6.44
2016-03-17T04:59:27.068Z,6.39
2016-03-17T05:00:27.086Z,6.33
2016-03-17T05:01:27.104Z,6.33
2016-03-17T05:02:27.123Z,6.41
2016-03-17T05:03:27.126Z,6.36
2016-03-17T05:04:27.159Z,6.3
2016-03-17T05:05:27.162Z,6.33
2016-03-17T05:06:27.180Z,6.35
2016-03-17T05:07:27.182Z,6.39
2016-03-17T05:08:27.217Z,6.36
2016-03-17T05:09:27.219Z,6.36
2016-03-17T05:10:27.237Z,6.36
2016-03-17T05:11:27.256Z,6.31
2016-03-17T05:12:27.275Z,6.33
2016-03-17T05:13:27.293Z,6.33
2016-03-17T05:14:27.312Z,6.36
2016-03-17T05:15:27.361Z,6.3
2016-03-17T05:16:27.331Z,6.39
2016-03-17T05:17:27.335Z,6.28
2016-03-17T05:18:27.353Z,6.35
2016-03-17T05:19:27.372Z,6.27
2016-03-17T05:20:27.405Z,6.3
2016-03-17T05:21:27.408Z,6.27
2016-03-17T05:22:27.427Z,6.27
2016-03-17T05:23:27.430Z,6.26
2016-03-17T05:24:27.448Z,6.31
2016-03-17T05:25:27.450Z,6.3
2016-03-17T05:26:27.484Z,6.3
2016-03-17T05:27:27.502Z,6.31
2016-03-17T05:28:27.505Z,6.26
2016-03-17T05:29:27.524Z,6.3
2016-03-17T05:30:27.541Z,6.24
2016-03-17T05:31:27.560Z,6.27
2016-03-17T05:32:27.578Z,6.22
2016-03-17T05:33:27.582Z,6.31
2016-03-17T05:34:27.615Z,6.24
2016-03-17T05:35:27.618Z,6.28
2016-03-17T05:36:27.621Z,6.33
2016-03-17T05:37:27.638Z,6.27
2016-03-17T05:38:27.657Z,6.26
2016-03-17T05:39:27.676Z,6.28
2016-03-17T05:40:27.693Z,6.22
2016-03-17T05:41:27.712Z,6.22
2016-03-17T05:42:27.715Z,6.19
2016-03-17T05:43:27.734Z,6.2
2016-03-17T05:44:27.751Z,6.26
2016-03-17T05:45:27.770Z,6.3
2016-03-17T05:46:27.787Z,6.28
2016-03-17T05:47:27.822Z,6.26
2016-03-17T05:48:27.637Z,6.24
2016-03-17T05:49:27.827Z,6.27
2016-03-17T05:50:27.845Z,6.26
2016-03-17T05:51:27.863Z,6.19
2016-03-17T05:52:27.866Z,6.3
2016-03-17T05:53:27.885Z,6.26
2016-03-17T05:54:27.903Z,6.22
2016-03-17T05:55:27.922Z,6.24
2016-03-17T05:56:27.924Z,6.28
2016-03-17T05:57:27.942Z,6.26
2016-03-17T05:58:27.991Z,6.3
2016-03-17T05:59:27.979Z,6.24
2016-03-17T06:00:27.982Z,6.26
2016-03-17T06:01:28.016Z,6.27
2016-03-17T06:02:28.035Z,6.27
2016-03-17T06:03:28.037Z,6.27
2016-03-17T06:04:28.055Z,6.28
2016-03-17T06:05:28.074Z,6.22
2016-03-17T06:06:28.077Z,6.28
2016-03-17T06:07:28.079Z,6.26
2016-03-17T06:08:28.097Z,6.26
2016-03-17T06:09:28.131Z,6.33
2016-03-17T06:10:28.149Z,6.33
2016-03-17T06:11:28.152Z,6.35
2016-03-17T06:12:28.170Z,6.3
2016-03-17T06:13:28.189Z,6.22
2016-03-17T06:14:28.191Z,6.28
2016-03-17T06:15:28.210Z,6.28
2016-03-17T06:16:28.243Z,6.3
2016-03-17T06:17:28.246Z,6.33
2016-03-17T06:18:28.249Z,6.33
2016-03-17T06:19:28.283Z,6.33
2016-03-17T06:20:28.286Z,6.3
2016-03-17T06:21:28.304Z,6.33
2016-03-17T06:22:28.322Z,6.35
2016-03-17T06:23:28.341Z,6.3
2016-03-17T06:24:28.358Z,6.35
2016-03-17T06:25:28.361Z,6.39
2016-03-17T06:26:28.379Z,6.33
2016-03-17T06:27:28.397Z,6.38
2016-03-17T06:28:28.400Z,6.33
2016-03-17T06:29:28.418Z,6.38
2016-03-17T06:30:28.438Z,6.36
2016-03-17T06:31:28.455Z,6.35
2016-03-17T06:32:28.458Z,6.31
2016-03-17T06:33:28.477Z,6.45
2016-03-17T06:34:28.511Z,6.45
2016-03-17T06:35:28.513Z,6.46
2016-03-17T06:36:28.547Z,6.49
2016-03-17T06:37:28.397Z,6.49
2016-03-17T06:38:28.564Z,6.46
2016-03-17T06:39:28.910Z,6.54
2016-03-17T06:40:29.906Z,6.51
2016-03-17T06:41:28.596Z,6.57
2016-03-17T06:42:28.614Z,6.54
2016-03-17T06:43:28.633Z,6.56
2016-03-17T06:44:28.650Z,6.52
2016-03-17T06:45:28.653Z,6.57
2016-03-17T06:46:28.672Z,6.57
2016-03-17T06:47:28.549Z,6.48
2016-03-17T06:48:28.708Z,6.57
2016-03-17T06:49:28.714Z,6.63
2016-03-17T06:50:28.733Z,6.66
2016-03-17T06:51:28.766Z,6.57
2016-03-17T06:52:28.769Z,6.64
2016-03-17T06:53:28.788Z,6.64
2016-03-17T06:54:28.790Z,6.63
2016-03-17T06:55:28.824Z,6.62
2016-03-17T06:56:28.857Z,6.7
2016-03-17T06:57:28.829Z,6.64
2016-03-17T06:58:28.879Z,6.69
2016-03-17T06:59:28.865Z,6.78
2016-03-17T07:00:28.901Z,6.77
2016-03-17T07:01:29.106Z,6.74
2016-03-17T07:02:28.920Z,6.81
2016-03-17T07:03:28.767Z,6.81
2016-03-17T07:04:28.942Z,6.81
2016-03-17T07:05:29.085Z,6.87
2016-03-17T07:06:29.056Z,6.92
2016-03-17T07:07:28.981Z,6.95
2016-03-17T07:08:29.015Z,7.05
2016-03-17T07:09:29.018Z,7.06
2016-03-17T07:10:29.037Z,7.05
2016-03-17T07:11:29.164Z,7.05
2016-03-17T07:12:29.073Z,7.13
2016-03-17T07:13:29.076Z,7.17
2016-03-17T07:14:29.109Z,7.15
2016-03-17T07:15:29.112Z,7.18
2016-03-17T07:16:29.130Z,7.21
2016-03-17T07:17:29.242Z,7.17
2016-03-17T07:18:29.152Z,7.25
2016-03-17T07:19:29.170Z,7.31
2016-03-17T07:20:29.188Z,7.31
2016-03-17T07:21:29.207Z,7.31
2016-03-17T07:22:29.224Z,7.35
2016-03-17T07:23:29.227Z,7.42
2016-03-17T07:24:29.261Z,7.45
2016-03-17T07:25:29.264Z,7.53
2016-03-17T07:26:29.299Z,7.53
2016-03-17T07:27:29.286Z,7.57
2016-03-17T07:28:29.319Z,7.63
2016-03-17T07:29:29.322Z,7.67
2016-03-17T07:30:29.356Z,7.72
2016-03-17T07:31:29.359Z,7.72
2016-03-17T07:32:29.221Z,7.7
2016-03-17T07:33:29.380Z,7.76
2016-03-17T07:34:29.413Z,7.85
2016-03-17T07:35:29.415Z,7.9
2016-03-17T07:36:29.450Z,7.83
2016-03-17T07:37:29.437Z,7.95
2016-03-17T07:38:29.471Z,7.94
2016-03-17T07:39:29.474Z,7.93
2016-03-17T07:40:29.508Z,8.01
2016-03-17T07:41:29.510Z,7.98
2016-03-17T07:42:29.544Z,8.03
2016-03-17T07:43:29.531Z,8.1
2016-03-17T07:44:29.565Z,8.08
2016-03-17T07:45:29.568Z,8.19
2016-03-17T07:46:29.602Z,8.2
2016-03-17T07:47:29.605Z,8.18
2016-03-17T07:48:29.748Z,8.24
2016-03-17T07:49:29.641Z,8.36
2016-03-17T07:50:29.660Z,8.33
2016-03-17T07:51:29.678Z,8.41
2016-03-17T07:52:29.680Z,8.48
2016-03-17T07:53:29.699Z,8.51
2016-03-17T07:54:29.716Z,8.58
2016-03-17T07:55:29.720Z,8.61
2016-03-17T07:56:29.738Z,8.66
2016-03-17T07:57:29.757Z,8.67
2016-03-17T07:58:29.775Z,8.7
2016-03-17T07:59:29.793Z,8.78
2016-03-17T08:00:29.796Z,8.76
2016-03-17T08:01:29.814Z,8.82
2016-03-17T08:02:29.832Z,8.88
2016-03-17T08:03:29.898Z,8.89
2016-03-17T08:04:29.869Z,8.95
2016-03-17T08:05:29.871Z,8.99
2016-03-17T08:06:29.739Z,9.08
2016-03-17T08:07:29.914Z,9.13
2016-03-17T08:08:29.931Z,9.14
2016-03-17T08:09:29.950Z,9.14
2016-03-17T08:10:29.953Z,9.29
2016-03-17T08:11:29.987Z,9.32
2016-03-17T08:12:29.990Z,9.31
2016-03-17T08:13:30.008Z,9.4
2016-03-17T08:14:30.026Z,9.43
2016-03-17T08:15:30.061Z,9.43
2016-03-17T08:16:30.063Z,9.44
2016-03-17T08:17:30.066Z,9.58
2016-03-17T08:18:30.177Z,9.59
2016-03-17T08:19:30.103Z,9.72
2016-03-17T08:20:30.136Z,9.65
2016-03-17T08:21:30.139Z,9.72
2016-03-17T08:22:30.157Z,9.77
2016-03-17T08:23:30.175Z,9.68
2016-03-17T08:24:30.193Z,9.76
2016-03-17T08:25:30.212Z,9.77
2016-03-17T08:26:30.261Z,9.89
2016-03-17T08:27:30.264Z,9.89
2016-03-17T08:28:30.252Z,9.89
2016-03-17T08:29:30.269Z,9.87
2016-03-17T08:30:30.288Z,9.92
2016-03-17T08:31:30.306Z,9.97
2016-03-17T08:32:30.324Z,10.1
2016-03-17T08:33:30.359Z,10.16
2016-03-17T08:34:30.346Z,10.13
2016-03-17T08:35:30.380Z,10.13
2016-03-17T08:36:30.383Z,10.13
2016-03-17T08:37:30.416Z,10.19
2016-03-17T08:38:30.435Z,10.2
2016-03-17T08:39:30.438Z,10.3
2016-03-17T08:40:30.456Z,10.26
2016-03-17T08:41:30.474Z,10.41
2016-03-17T08:42:30.492Z,10.4
2016-03-17T08:43:30.510Z,10.46
2016-03-17T08:44:30.529Z,10.57
2016-03-17T08:45:30.547Z,10.56
2016-03-17T08:46:30.550Z,10.68
2016-03-17T08:47:30.583Z,10.81
2016-03-17T08:48:30.586Z,10.79
2016-03-17T08:49:30.620Z,10.75
2016-03-17T08:50:30.623Z,10.75
2016-03-17T08:51:30.641Z,10.75
2016-03-17T08:52:30.660Z,10.84
2016-03-17T08:53:30.678Z,10.93
2016-03-17T08:54:30.697Z,10.94
2016-03-17T08:55:30.714Z,11
2016-03-17T08:56:30.733Z,10.99
2016-03-17T08:57:30.735Z,11.02
2016-03-17T08:58:30.754Z,11.19
2016-03-17T08:59:30.772Z,11.17
2016-03-17T09:00:30.791Z,11.22
2016-03-17T09:01:30.824Z,11.33
2016-03-17T09:02:30.843Z,11.36
2016-03-17T09:03:30.845Z,11.37
2016-03-17T09:04:30.864Z,11.54
2016-03-17T09:05:30.882Z,11.57
2016-03-17T09:06:30.906Z,11.59
2016-03-17T09:07:30.908Z,11.63
2016-03-17T09:08:30.943Z,11.65
2016-03-17T09:09:30.960Z,11.72
2016-03-17T09:10:30.979Z,11.72
2016-03-17T09:11:30.997Z,11.77
2016-03-17T09:12:31.015Z,11.81
2016-03-17T09:13:31.050Z,11.75
2016-03-17T09:14:31.053Z,11.86
2016-03-17T09:15:31.086Z,11.95
2016-03-17T09:16:31.104Z,11.91
2016-03-17T09:17:31.106Z,12.04
2016-03-17T09:18:31.141Z,12.12
2016-03-17T09:19:31.205Z,12.12
2016-03-17T09:20:31.161Z,12.18
2016-03-17T09:21:31.180Z,12.24
2016-03-17T09:22:31.338Z,12.31
2016-03-17T09:23:31.202Z,12.37
2016-03-17T09:24:31.204Z,12.47
2016-03-17T09:25:31.253Z,12.42
2016-03-17T09:26:31.259Z,12.45
2016-03-17T09:27:31.278Z,12.47
2016-03-17T09:28:31.297Z,12.54
2016-03-17T09:29:31.315Z,12.55
2016-03-17T09:30:31.333Z,12.62
2016-03-17T09:31:31.351Z,12.76
2016-03-17T09:32:31.370Z,12.76
2016-03-17T09:33:31.404Z,12.79
2016-03-17T09:34:31.406Z,12.82
2016-03-17T09:35:31.441Z,12.86
2016-03-17T09:36:31.444Z,12.94
2016-03-17T09:37:31.492Z,12.94
2016-03-17T09:38:31.480Z,13.01
2016-03-17T09:39:31.498Z,13.03
2016-03-17T09:40:31.517Z,13.05
2016-03-17T09:41:31.550Z,13.03
2016-03-17T09:42:31.397Z,13.12
2016-03-17T09:43:31.587Z,13.2
2016-03-17T09:44:31.590Z,13.28
2016-03-17T09:45:31.608Z,13.3
2016-03-17T09:46:31.626Z,13.35
2016-03-17T09:47:31.644Z,13.35
2016-03-17T09:48:31.663Z,13.46
2016-03-17T09:49:31.697Z,13.53
2016-03-17T09:50:31.699Z,13.56
2016-03-17T09:51:31.765Z,13.54
2016-03-17T09:52:31.737Z,13.59
2016-03-17T09:53:31.755Z,13.63
2016-03-17T09:54:31.789Z,13.7
2016-03-17T09:55:31.790Z,13.74
2016-03-17T09:56:31.825Z,13.77
2016-03-17T09:57:31.829Z,13.79
2016-03-17T09:58:31.862Z,13.77
2016-03-17T09:59:31.865Z,13.99
2016-03-17T10:00:31.883Z,13.93
2016-03-17T10:01:31.917Z,13.97
2016-03-17T10:02:31.951Z,14.05
2016-03-17T10:03:31.969Z,14.12
2016-03-17T10:04:31.987Z,14.23
2016-03-17T10:05:32.006Z,14.14
2016-03-17T10:06:32.024Z,14.1
2016-03-17T10:07:32.042Z,14.22
2016-03-17T10:08:32.076Z,14.22
2016-03-17T10:09:32.064Z,14.36
2016-03-17T10:10:32.097Z,14.29
2016-03-17T10:11:32.130Z,14.43
2016-03-17T10:12:32.150Z,14.43
2016-03-17T10:13:32.169Z,14.54
2016-03-17T10:14:32.185Z,14.59
2016-03-17T10:15:32.205Z,14.65
2016-03-17T10:16:32.222Z,14.73
2016-03-17T10:17:32.241Z,14.73
2016-03-17T10:18:32.259Z,14.78
2016-03-17T10:19:32.277Z,14.78
2016-03-17T10:20:32.312Z,14.82
2016-03-17T10:21:32.315Z,14.85
2016-03-17T10:22:32.363Z,14.82
2016-03-17T10:23:32.382Z,14.91
2016-03-17T10:24:32.368Z,14.91
2016-03-17T10:25:32.418Z,14.99
2016-03-17T10:26:32.437Z,15
2016-03-17T10:27:32.424Z,15.02
2016-03-17T10:28:32.459Z,15.06
2016-03-17T10:29:32.476Z,15.11
2016-03-17T10:30:32.495Z,15.04
2016-03-17T10:31:32.512Z,15.22
2016-03-17T10:32:32.532Z,15.17
2016-03-17T10:33:32.550Z,15.24
2016-03-17T10:34:32.567Z,15.29
2016-03-17T10:35:32.602Z,15.33
2016-03-17T10:36:32.620Z,15.36
2016-03-17T10:37:32.639Z,15.39
2016-03-17T10:38:32.673Z,15.4
2016-03-17T10:39:32.691Z,15.43
2016-03-17T10:40:32.709Z,15.44
2016-03-17T10:41:32.711Z,15.47
2016-03-17T10:42:32.746Z,15.47
2016-03-17T10:43:32.764Z,15.58
2016-03-17T10:44:32.783Z,15.58
2016-03-17T10:45:32.816Z,15.62
2016-03-17T10:46:32.819Z,15.7
2016-03-17T10:47:32.853Z,15.64
2016-03-17T10:48:32.872Z,15.68
2016-03-17T10:49:32.890Z,15.75
2016-03-17T10:50:32.939Z,15.79
2016-03-17T10:51:32.941Z,15.88
2016-03-17T10:52:32.960Z,15.9
2016-03-17T10:53:32.979Z,16.08
2016-03-17T10:54:32.997Z,15.98
2016-03-17T10:55:33.015Z,16.13
2016-03-17T10:56:33.049Z,16.16
2016-03-17T10:57:33.067Z,16.12
2016-03-17T10:58:33.086Z,16.21
2016-03-17T10:59:33.104Z,16.23
2016-03-17T11:00:33.123Z,16.24
2016-03-17T11:01:33.156Z,16.33
2016-03-17T11:02:33.159Z,16.33
2016-03-17T11:03:33.193Z,16.41
2016-03-17T11:04:33.211Z,16.42
2016-03-17T11:05:33.245Z,16.41
2016-03-17T11:06:33.248Z,16.49
2016-03-17T11:07:33.282Z,16.46
2016-03-17T11:08:33.300Z,16.5
2016-03-17T11:09:33.320Z,16.54
2016-03-17T11:10:33.340Z,16.6
2016-03-17T11:11:33.373Z,16.64
2016-03-17T11:12:33.220Z,16.69
2016-03-17T11:13:33.411Z,16.72
2016-03-17T11:14:33.428Z,16.76
2016-03-17T11:15:33.463Z,16.75
2016-03-17T11:16:33.481Z,16.83
2016-03-17T11:17:33.499Z,16.86
2016-03-17T11:18:33.533Z,16.9
2016-03-17T11:19:33.552Z,16.96
2016-03-17T11:20:33.569Z,17.08
2016-03-17T11:21:33.589Z,17.01
2016-03-17T11:22:33.621Z,17.14
2016-03-17T11:23:33.641Z,17.16
2016-03-17T11:24:33.658Z,17.19
2016-03-17T11:25:33.677Z,17.26
2016-03-17T11:26:33.695Z,17.26
2016-03-17T11:27:33.730Z,17.26
2016-03-17T11:28:33.747Z,17.31
2016-03-17T11:29:33.766Z,17.31
2016-03-17T11:30:33.785Z,17.33
2016-03-17T11:31:33.818Z,17.34
2016-03-17T11:32:33.836Z,17.36
2016-03-17T11:33:33.854Z,17.42
2016-03-17T11:34:33.888Z,17.49
2016-03-17T11:35:33.907Z,17.48
2016-03-17T11:36:33.926Z,17.52
2016-03-17T11:37:33.943Z,17.48
2016-03-17T11:38:33.978Z,17.56
2016-03-17T11:39:33.996Z,17.52
2016-03-17T11:40:34.015Z,17.6
2016-03-17T11:41:34.048Z,17.63
2016-03-17T11:42:34.082Z,17.64
2016-03-17T11:43:34.084Z,17.6
2016-03-17T11:44:34.103Z,17.7
2016-03-17T11:45:34.122Z,17.64
2016-03-17T11:46:34.171Z,17.7
2016-03-17T11:47:34.173Z,17.72
2016-03-17T11:48:34.192Z,17.78
2016-03-17T11:49:34.226Z,17.87
2016-03-17T11:50:34.260Z,17.9
2016-03-17T11:51:34.278Z,17.87
2016-03-17T11:52:34.281Z,17.86
2016-03-17T11:53:34.330Z,17.82
2016-03-17T11:54:34.364Z,17.9
2016-03-17T11:55:34.366Z,17.83
2016-03-17T11:56:34.385Z,17.86
2016-03-17T11:57:34.404Z,17.86
2016-03-17T11:58:34.438Z,17.9
2016-03-17T11:59:34.456Z,17.83
2016-03-17T12:00:34.479Z,17.89
2016-03-17T12:01:34.482Z,17.82
2016-03-17T12:02:34.531Z,17.87
2016-03-17T12:03:34.549Z,17.9
2016-03-17T12:04:34.568Z,17.87
2016-03-17T12:05:34.586Z,17.97
2016-03-17T12:06:34.620Z,18
2016-03-17T12:07:34.654Z,18.01
2016-03-17T12:08:34.657Z,18.1
2016-03-17T12:09:34.707Z,18.07
2016-03-17T12:10:34.709Z,18.07
2016-03-17T12:11:34.727Z,18.1
2016-03-17T12:12:34.761Z,18.03
2016-03-17T12:13:34.796Z,18.05
2016-03-17T12:14:34.814Z,18.16
2016-03-17T12:15:34.831Z,18.16
2016-03-17T12:16:34.850Z,18.15
2016-03-17T12:17:34.884Z,18.11
2016-03-17T12:18:34.902Z,18.19
2016-03-17T12:19:34.983Z,18.22
2016-03-17T12:20:34.955Z,18.29
2016-03-17T12:21:34.973Z,18.29
2016-03-17T12:22:35.007Z,18.31
2016-03-17T12:23:35.025Z,18.31
2016-03-17T12:24:35.044Z,18.37
2016-03-17T12:25:35.062Z,18.4
2016-03-17T12:26:35.096Z,18.44
2016-03-17T12:27:35.114Z,18.55
2016-03-17T12:28:35.148Z,18.45
2016-03-17T12:29:35.166Z,18.52
2016-03-17T12:30:35.185Z,18.5
2016-03-17T12:31:35.235Z,18.53
2016-03-17T12:32:35.221Z,18.56
2016-03-17T12:33:35.271Z,18.59
2016-03-17T12:34:35.304Z,18.63
2016-03-17T12:35:35.307Z,18.56
2016-03-17T12:36:35.342Z,18.56
2016-03-17T12:37:35.345Z,18.66
2016-03-17T12:38:35.378Z,18.7
2016-03-17T12:39:35.396Z,18.73
2016-03-17T12:40:35.431Z,18.71
2016-03-17T12:41:35.448Z,18.8
2016-03-17T12:42:35.484Z,18.74
2016-03-17T12:43:35.494Z,18.73
2016-03-17T12:44:35.501Z,18.73
2016-03-17T12:45:35.522Z,18.75
2016-03-17T12:46:35.528Z,18.8
2016-03-17T12:47:35.549Z,18.8
2016-03-17T12:48:35.561Z,18.83
2016-03-17T12:49:35.590Z,18.77
2016-03-17T12:50:35.604Z,18.83
2016-03-17T12:51:35.618Z,18.86
2016-03-17T12:52:35.647Z,18.9
2016-03-17T12:53:35.663Z,18.86
2016-03-17T12:54:35.680Z,18.89
2016-03-17T12:55:35.712Z,18.89
2016-03-17T12:56:35.729Z,18.86
2016-03-17T12:57:35.761Z,18.81
2016-03-17T12:58:35.779Z,18.95
2016-03-17T12:59:35.813Z,18.96
2016-03-17T13:00:35.829Z,18.9
2016-03-17T13:01:35.847Z,18.99
2016-03-17T13:02:35.880Z,18.99
2016-03-17T13:03:35.898Z,18.95
2016-03-17T13:04:35.932Z,19
2016-03-17T13:05:35.951Z,18.96
2016-03-17T13:06:35.969Z,18.92
2016-03-17T13:07:35.994Z,18.96
2016-03-17T13:08:36.028Z,18.99
2016-03-17T13:09:36.046Z,19.02
2016-03-17T13:10:36.080Z,19
2016-03-17T13:11:36.083Z,19.11
2016-03-17T13:12:36.117Z,19.02